sensor_id;sensor_type;location;lat;lon;timestamp;P1;durP1;ratioP1;P2;durP2;ratioP2
735;SDS011;352;48.626;9.238;2022-12-16T00:00:22;44.25;;;24.88;;
735;SDS011;352;48.626;9.238;2022-12-16T00:02:51;37.05;;;25.85;;
735;SDS011;352;48.626;9.238;2022-12-16T00:05:18;41.92;;;25.40;;
735;SDS011;352;48.626;9.238;2022-12-16T00:07:45;43.75;;;27.15;;
735;SDS011;352;48.626;9.238;2022-12-16T00:10:12;38.63;;;24.45;;
735;SDS011;352;48.626;9.238;2022-12-16T00:12:39;42.72;;;26.10;;
735;SDS011;352;48.626;9.238;2022-12-16T00:15:06;42.40;;;26.92;;
735;SDS011;352;48.626;9.238;2022-12-16T00:17:33;38.25;;;25.88;;
735;SDS011;352;48.626;9.238;2022-12-16T00:20:02;39.25;;;25.90;;
735;SDS011;352;48.626;9.238;2022-12-16T00:22:29;37.35;;;23.98;;
735;SDS011;352;48.626;9.238;2022-12-16T00:24:56;36.25;;;24.15;;
735;SDS011;352;48.626;9.238;2022-12-16T00:27:22;41.45;;;26.08;;
735;SDS011;352;48.626;9.238;2022-12-16T00:29:49;43.65;;;26.83;;
735;SDS011;352;48.626;9.238;2022-12-16T00:32:16;43.42;;;26.30;;
735;SDS011;352;48.626;9.238;2022-12-16T00:34:43;39.38;;;23.95;;
735;SDS011;352;48.626;9.238;2022-12-16T00:37:11;41.58;;;25.45;;
735;SDS011;352;48.626;9.238;2022-12-16T00:39:38;38.28;;;24.65;;
735;SDS011;352;48.626;9.238;2022-12-16T00:42:04;34.55;;;23.40;;
735;SDS011;352;48.626;9.238;2022-12-16T00:44:31;39.60;;;24.92;;
735;SDS011;352;48.626;9.238;2022-12-16T00:46:58;39.33;;;25.92;;
735;SDS011;352;48.626;9.238;2022-12-16T00:49:25;41.10;;;27.17;;
735;SDS011;352;48.626;9.238;2022-12-16T00:51:51;35.78;;;23.10;;
735;SDS011;352;48.626;9.238;2022-12-16T00:54:19;38.55;;;24.33;;
735;SDS011;352;48.626;9.238;2022-12-16T00:56:46;40.95;;;25.60;;
735;SDS011;352;48.626;9.238;2022-12-16T00:59:13;38.90;;;27.17;;
735;SDS011;352;48.626;9.238;2022-12-16T01:01:40;40.08;;;26.42;;
735;SDS011;352;48.626;9.238;2022-12-16T01:04:06;47.03;;;26.23;;
735;SDS011;352;48.626;9.238;2022-12-16T01:06:33;38.10;;;26.05;;
735;SDS011;352;48.626;9.238;2022-12-16T01:09:00;45.00;;;26.10;;
735;SDS011;352;48.626;9.238;2022-12-16T01:11:28;39.17;;;25.83;;
735;SDS011;352;48.626;9.238;2022-12-16T01:13:54;37.63;;;25.38;;
735;SDS011;352;48.626;9.238;2022-12-16T01:16:21;38.47;;;25.25;;
735;SDS011;352;48.626;9.238;2022-12-16T01:18:48;37.83;;;24.65;;
735;SDS011;352;48.626;9.238;2022-12-16T01:21:15;37.92;;;25.63;;
735;SDS011;352;48.626;9.238;2022-12-16T01:23:41;41.30;;;25.70;;
735;SDS011;352;48.626;9.238;2022-12-16T01:26:08;43.33;;;25.95;;
735;SDS011;352;48.626;9.238;2022-12-16T01:28:42;37.85;;;24.65;;
735;SDS011;352;48.626;9.238;2022-12-16T01:31:09;40.20;;;27.40;;
735;SDS011;352;48.626;9.238;2022-12-16T01:33:37;46.72;;;27.60;;
735;SDS011;352;48.626;9.238;2022-12-16T01:36:04;40.00;;;24.98;;
735;SDS011;352;48.626;9.238;2022-12-16T01:38:32;38.25;;;25.80;;
735;SDS011;352;48.626;9.238;2022-12-16T01:41:00;38.22;;;25.58;;
735;SDS011;352;48.626;9.238;2022-12-16T01:43:28;39.83;;;24.60;;
735;SDS011;352;48.626;9.238;2022-12-16T01:45:59;40.15;;;26.10;;
735;SDS011;352;48.626;9.238;2022-12-16T01:48:32;41.35;;;26.25;;
735;SDS011;352;48.626;9.238;2022-12-16T01:51:05;40.00;;;25.35;;
735;SDS011;352;48.626;9.238;2022-12-16T01:53:35;37.78;;;25.60;;
735;SDS011;352;48.626;9.238;2022-12-16T01:56:06;39.35;;;26.40;;
735;SDS011;352;48.626;9.238;2022-12-16T01:58:35;40.63;;;24.38;;
735;SDS011;352;48.626;9.238;2022-12-16T02:01:07;42.42;;;26.42;;
735;SDS011;352;48.626;9.238;2022-12-16T02:03:35;41.63;;;26.38;;
735;SDS011;352;48.626;9.238;2022-12-16T02:06:02;37.30;;;25.45;;
735;SDS011;352;48.626;9.238;2022-12-16T02:08:31;37.65;;;25.25;;
735;SDS011;352;48.626;9.238;2022-12-16T02:11:12;42.53;;;24.63;;
735;SDS011;352;48.626;9.238;2022-12-16T02:14:07;36.35;;;23.80;;
735;SDS011;352;48.626;9.238;2022-12-16T02:16:56;33.40;;;23.38;;
735;SDS011;352;48.626;9.238;2022-12-16T02:19:38;38.67;;;25.40;;
735;SDS011;352;48.626;9.238;2022-12-16T02:22:26;36.13;;;22.48;;
735;SDS011;352;48.626;9.238;2022-12-16T02:25:17;36.70;;;23.73;;
735;SDS011;352;48.626;9.238;2022-12-16T02:28:04;41.67;;;25.35;;
735;SDS011;352;48.626;9.238;2022-12-16T02:33:39;43.08;;;24.77;;
735;SDS011;352;48.626;9.238;2022-12-16T02:36:18;35.80;;;23.15;;
735;SDS011;352;48.626;9.238;2022-12-16T02:38:53;47.95;;;27.17;;
735;SDS011;352;48.626;9.238;2022-12-16T02:41:24;43.88;;;25.73;;
735;SDS011;352;48.626;9.238;2022-12-16T02:44:00;41.05;;;23.95;;
735;SDS011;352;48.626;9.238;2022-12-16T02:46:30;42.25;;;25.50;;
735;SDS011;352;48.626;9.238;2022-12-16T02:49:03;37.00;;;24.70;;
735;SDS011;352;48.626;9.238;2022-12-16T02:51:31;38.47;;;23.92;;
735;SDS011;352;48.626;9.238;2022-12-16T02:54:02;35.80;;;22.77;;
735;SDS011;352;48.626;9.238;2022-12-16T02:56:32;43.83;;;25.50;;
735;SDS011;352;48.626;9.238;2022-12-16T02:59:14;34.35;;;23.45;;
735;SDS011;352;48.626;9.238;2022-12-16T03:01:51;42.42;;;25.10;;
735;SDS011;352;48.626;9.238;2022-12-16T03:04:24;38.40;;;24.92;;
735;SDS011;352;48.626;9.238;2022-12-16T03:06:56;39.47;;;24.10;;
735;SDS011;352;48.626;9.238;2022-12-16T03:09:27;38.65;;;24.25;;
735;SDS011;352;48.626;9.238;2022-12-16T03:11:57;40.33;;;26.88;;
735;SDS011;352;48.626;9.238;2022-12-16T03:14:26;39.47;;;24.58;;
735;SDS011;352;48.626;9.238;2022-12-16T03:16:57;46.00;;;27.05;;
735;SDS011;352;48.626;9.238;2022-12-16T03:19:25;38.10;;;25.77;;
735;SDS011;352;48.626;9.238;2022-12-16T03:21:53;41.83;;;26.60;;
735;SDS011;352;48.626;9.238;2022-12-16T03:24:24;44.38;;;27.85;;
735;SDS011;352;48.626;9.238;2022-12-16T03:26:52;38.35;;;25.48;;
735;SDS011;352;48.626;9.238;2022-12-16T03:29:25;41.47;;;26.45;;
735;SDS011;352;48.626;9.238;2022-12-16T03:32:00;46.50;;;27.85;;
735;SDS011;352;48.626;9.238;2022-12-16T03:34:31;42.17;;;24.30;;
735;SDS011;352;48.626;9.238;2022-12-16T03:37:02;40.42;;;25.67;;
735;SDS011;352;48.626;9.238;2022-12-16T03:39:31;40.00;;;26.65;;
735;SDS011;352;48.626;9.238;2022-12-16T03:42:00;36.53;;;24.75;;
735;SDS011;352;48.626;9.238;2022-12-16T03:44:28;42.00;;;25.23;;
735;SDS011;352;48.626;9.238;2022-12-16T03:46:56;40.17;;;26.75;;
735;SDS011;352;48.626;9.238;2022-12-16T03:49:24;43.00;;;25.20;;
735;SDS011;352;48.626;9.238;2022-12-16T03:51:51;40.03;;;25.50;;
735;SDS011;352;48.626;9.238;2022-12-16T03:54:19;45.90;;;27.38;;
735;SDS011;352;48.626;9.238;2022-12-16T03:56:45;38.95;;;25.20;;
735;SDS011;352;48.626;9.238;2022-12-16T03:59:12;43.38;;;26.67;;
735;SDS011;352;48.626;9.238;2022-12-16T04:01:39;40.85;;;25.48;;
735;SDS011;352;48.626;9.238;2022-12-16T04:04:06;38.42;;;24.73;;
735;SDS011;352;48.626;9.238;2022-12-16T04:06:34;36.92;;;24.13;;
735;SDS011;352;48.626;9.238;2022-12-16T04:09:01;39.03;;;25.63;;
735;SDS011;352;48.626;9.238;2022-12-16T04:11:28;38.22;;;24.63;;
735;SDS011;352;48.626;9.238;2022-12-16T04:14:12;37.97;;;25.92;;
735;SDS011;352;48.626;9.238;2022-12-16T04:16:56;38.80;;;26.33;;
735;SDS011;352;48.626;9.238;2022-12-16T04:19:41;36.50;;;24.52;;
735;SDS011;352;48.626;9.238;2022-12-16T04:22:29;38.83;;;24.92;;
735;SDS011;352;48.626;9.238;2022-12-16T04:25:18;35.72;;;24.58;;
735;SDS011;352;48.626;9.238;2022-12-16T04:27:47;37.72;;;24.40;;
735;SDS011;352;48.626;9.238;2022-12-16T04:30:14;33.90;;;23.65;;
735;SDS011;352;48.626;9.238;2022-12-16T04:32:46;39.17;;;25.90;;
735;SDS011;352;48.626;9.238;2022-12-16T04:35:33;35.80;;;25.35;;
735;SDS011;352;48.626;9.238;2022-12-16T04:38:18;39.10;;;24.92;;
735;SDS011;352;48.626;9.238;2022-12-16T04:41:02;35.00;;;23.33;;
735;SDS011;352;48.626;9.238;2022-12-16T04:43:47;37.28;;;24.48;;
735;SDS011;352;48.626;9.238;2022-12-16T04:46:31;37.25;;;23.35;;
735;SDS011;352;48.626;9.238;2022-12-16T04:49:15;41.33;;;24.35;;
735;SDS011;352;48.626;9.238;2022-12-16T04:51:59;39.20;;;26.25;;
735;SDS011;352;48.626;9.238;2022-12-16T04:54:45;41.28;;;24.95;;
735;SDS011;352;48.626;9.238;2022-12-16T04:57:29;37.85;;;24.20;;
735;SDS011;352;48.626;9.238;2022-12-16T05:00:13;37.70;;;25.88;;
735;SDS011;352;48.626;9.238;2022-12-16T05:02:57;42.00;;;26.75;;
735;SDS011;352;48.626;9.238;2022-12-16T05:05:42;31.05;;;22.77;;
735;SDS011;352;48.626;9.238;2022-12-16T05:08:26;45.70;;;26.70;;
735;SDS011;352;48.626;9.238;2022-12-16T05:11:11;35.70;;;24.17;;
735;SDS011;352;48.626;9.238;2022-12-16T05:13:56;35.70;;;24.23;;
735;SDS011;352;48.626;9.238;2022-12-16T05:16:40;40.55;;;26.13;;
735;SDS011;352;48.626;9.238;2022-12-16T05:19:24;35.53;;;23.45;;
735;SDS011;352;48.626;9.238;2022-12-16T05:22:08;33.45;;;23.15;;
735;SDS011;352;48.626;9.238;2022-12-16T05:24:52;37.53;;;24.63;;
735;SDS011;352;48.626;9.238;2022-12-16T05:27:38;38.20;;;23.60;;
735;SDS011;352;48.626;9.238;2022-12-16T05:30:22;36.97;;;24.15;;
735;SDS011;352;48.626;9.238;2022-12-16T05:33:07;39.08;;;24.02;;
735;SDS011;352;48.626;9.238;2022-12-16T05:35:51;38.97;;;24.65;;
735;SDS011;352;48.626;9.238;2022-12-16T05:38:35;31.80;;;21.45;;
735;SDS011;352;48.626;9.238;2022-12-16T05:41:19;38.75;;;22.98;;
735;SDS011;352;48.626;9.238;2022-12-16T05:44:05;30.20;;;21.48;;
735;SDS011;352;48.626;9.238;2022-12-16T05:46:49;31.15;;;21.05;;
735;SDS011;352;48.626;9.238;2022-12-16T05:49:33;31.17;;;21.67;;
735;SDS011;352;48.626;9.238;2022-12-16T05:52:18;34.83;;;21.38;;
735;SDS011;352;48.626;9.238;2022-12-16T05:55:02;37.90;;;22.05;;
735;SDS011;352;48.626;9.238;2022-12-16T05:57:48;30.08;;;21.55;;
735;SDS011;352;48.626;9.238;2022-12-16T06:00:34;32.15;;;21.98;;
735;SDS011;352;48.626;9.238;2022-12-16T06:03:18;32.25;;;20.50;;
735;SDS011;352;48.626;9.238;2022-12-16T06:06:02;25.40;;;19.95;;
735;SDS011;352;48.626;9.238;2022-12-16T06:08:47;32.95;;;22.35;;
735;SDS011;352;48.626;9.238;2022-12-16T06:11:31;31.80;;;21.17;;
735;SDS011;352;48.626;9.238;2022-12-16T06:14:15;30.30;;;20.75;;
735;SDS011;352;48.626;9.238;2022-12-16T06:17:01;30.83;;;21.42;;
735;SDS011;352;48.626;9.238;2022-12-16T06:19:45;31.55;;;20.70;;
735;SDS011;352;48.626;9.238;2022-12-16T06:22:29;28.90;;;21.33;;
735;SDS011;352;48.626;9.238;2022-12-16T06:25:13;25.80;;;20.08;;
735;SDS011;352;48.626;9.238;2022-12-16T06:27:57;29.83;;;21.08;;
735;SDS011;352;48.626;9.238;2022-12-16T06:30:42;26.60;;;20.92;;
735;SDS011;352;48.626;9.238;2022-12-16T06:33:27;30.08;;;18.98;;
735;SDS011;352;48.626;9.238;2022-12-16T06:36:11;27.42;;;19.70;;
735;SDS011;352;48.626;9.238;2022-12-16T06:38:56;27.27;;;20.48;;
735;SDS011;352;48.626;9.238;2022-12-16T06:41:40;29.05;;;19.52;;
735;SDS011;352;48.626;9.238;2022-12-16T06:44:24;28.13;;;20.15;;
735;SDS011;352;48.626;9.238;2022-12-16T06:47:08;28.73;;;20.02;;
735;SDS011;352;48.626;9.238;2022-12-16T06:49:53;30.50;;;20.08;;
735;SDS011;352;48.626;9.238;2022-12-16T06:52:39;28.05;;;20.85;;
735;SDS011;352;48.626;9.238;2022-12-16T06:55:24;24.88;;;18.85;;
735;SDS011;352;48.626;9.238;2022-12-16T06:58:09;31.55;;;21.33;;
735;SDS011;352;48.626;9.238;2022-12-16T07:00:53;27.48;;;19.85;;
735;SDS011;352;48.626;9.238;2022-12-16T07:03:37;28.38;;;19.30;;
735;SDS011;352;48.626;9.238;2022-12-16T07:06:23;29.15;;;20.13;;
735;SDS011;352;48.626;9.238;2022-12-16T07:09:07;28.25;;;20.15;;
735;SDS011;352;48.626;9.238;2022-12-16T07:11:51;23.05;;;18.35;;
735;SDS011;352;48.626;9.238;2022-12-16T07:14:35;24.67;;;18.20;;
735;SDS011;352;48.626;9.238;2022-12-16T07:17:19;25.00;;;18.65;;
735;SDS011;352;48.626;9.238;2022-12-16T07:20:04;22.75;;;17.35;;
735;SDS011;352;48.626;9.238;2022-12-16T07:22:51;26.45;;;18.55;;
735;SDS011;352;48.626;9.238;2022-12-16T07:25:34;24.60;;;18.08;;
735;SDS011;352;48.626;9.238;2022-12-16T07:28:20;23.60;;;18.17;;
735;SDS011;352;48.626;9.238;2022-12-16T07:31:07;24.85;;;19.05;;
735;SDS011;352;48.626;9.238;2022-12-16T07:33:52;22.52;;;17.92;;
735;SDS011;352;48.626;9.238;2022-12-16T07:36:36;28.40;;;19.80;;
735;SDS011;352;48.626;9.238;2022-12-16T07:39:21;25.77;;;18.13;;
735;SDS011;352;48.626;9.238;2022-12-16T07:42:06;23.25;;;15.98;;
735;SDS011;352;48.626;9.238;2022-12-16T07:44:50;23.85;;;16.63;;
735;SDS011;352;48.626;9.238;2022-12-16T07:47:34;26.15;;;17.83;;
735;SDS011;352;48.626;9.238;2022-12-16T07:50:18;22.70;;;17.52;;
735;SDS011;352;48.626;9.238;2022-12-16T07:53:03;21.73;;;17.00;;
735;SDS011;352;48.626;9.238;2022-12-16T07:55:48;23.38;;;16.17;;
735;SDS011;352;48.626;9.238;2022-12-16T07:58:33;24.25;;;16.98;;
735;SDS011;352;48.626;9.238;2022-12-16T08:01:17;25.67;;;16.27;;
735;SDS011;352;48.626;9.238;2022-12-16T08:04:01;25.33;;;15.18;;
735;SDS011;352;48.626;9.238;2022-12-16T08:06:48;20.42;;;16.40;;
735;SDS011;352;48.626;9.238;2022-12-16T08:09:32;18.95;;;15.80;;
735;SDS011;352;48.626;9.238;2022-12-16T08:12:18;23.52;;;14.95;;
735;SDS011;352;48.626;9.238;2022-12-16T08:15:02;23.88;;;16.00;;
735;SDS011;352;48.626;9.238;2022-12-16T08:17:48;23.65;;;16.40;;
735;SDS011;352;48.626;9.238;2022-12-16T08:20:32;30.02;;;22.70;;
735;SDS011;352;48.626;9.238;2022-12-16T08:23:16;31.67;;;18.00;;
735;SDS011;352;48.626;9.238;2022-12-16T08:26:01;25.98;;;19.60;;
735;SDS011;352;48.626;9.238;2022-12-16T08:28:46;29.25;;;22.30;;
735;SDS011;352;48.626;9.238;2022-12-16T08:31:31;25.00;;;19.35;;
735;SDS011;352;48.626;9.238;2022-12-16T08:34:15;22.27;;;18.60;;
735;SDS011;352;48.626;9.238;2022-12-16T08:36:59;23.75;;;17.90;;
735;SDS011;352;48.626;9.238;2022-12-16T08:39:43;28.58;;;19.27;;
735;SDS011;352;48.626;9.238;2022-12-16T08:42:28;25.88;;;17.98;;
735;SDS011;352;48.626;9.238;2022-12-16T08:45:15;24.73;;;18.88;;
735;SDS011;352;48.626;9.238;2022-12-16T08:48:00;22.80;;;18.98;;
735;SDS011;352;48.626;9.238;2022-12-16T08:50:44;25.05;;;17.35;;
735;SDS011;352;48.626;9.238;2022-12-16T08:53:28;22.90;;;17.77;;
735;SDS011;352;48.626;9.238;2022-12-16T08:56:12;24.30;;;17.67;;
735;SDS011;352;48.626;9.238;2022-12-16T08:58:57;25.02;;;18.38;;
735;SDS011;352;48.626;9.238;2022-12-16T09:01:43;24.90;;;18.10;;
735;SDS011;352;48.626;9.238;2022-12-16T09:04:23;24.80;;;17.38;;
735;SDS011;352;48.626;9.238;2022-12-16T09:07:08;23.75;;;16.92;;
735;SDS011;352;48.626;9.238;2022-12-16T09:09:52;20.58;;;14.85;;
735;SDS011;352;48.626;9.238;2022-12-16T09:12:36;19.90;;;14.77;;
735;SDS011;352;48.626;9.238;2022-12-16T09:15:20;22.98;;;14.95;;
735;SDS011;352;48.626;9.238;2022-12-16T09:18:06;18.73;;;15.02;;
735;SDS011;352;48.626;9.238;2022-12-16T09:20:50;21.15;;;15.65;;
735;SDS011;352;48.626;9.238;2022-12-16T09:23:35;21.50;;;15.73;;
735;SDS011;352;48.626;9.238;2022-12-16T09:26:19;24.90;;;15.65;;
735;SDS011;352;48.626;9.238;2022-12-16T09:29:03;22.10;;;14.32;;
735;SDS011;352;48.626;9.238;2022-12-16T09:31:47;24.30;;;14.98;;
735;SDS011;352;48.626;9.238;2022-12-16T09:34:32;18.95;;;13.70;;
735;SDS011;352;48.626;9.238;2022-12-16T09:37:16;19.60;;;15.50;;
735;SDS011;352;48.626;9.238;2022-12-16T09:40:09;25.00;;;15.85;;
735;SDS011;352;48.626;9.238;2022-12-16T09:42:58;22.23;;;15.98;;
735;SDS011;352;48.626;9.238;2022-12-16T09:46:06;22.73;;;17.13;;
735;SDS011;352;48.626;9.238;2022-12-16T09:48:58;25.42;;;15.77;;
735;SDS011;352;48.626;9.238;2022-12-16T09:51:50;20.83;;;15.00;;
735;SDS011;352;48.626;9.238;2022-12-16T09:54:35;25.27;;;16.90;;
735;SDS011;352;48.626;9.238;2022-12-16T09:57:23;22.63;;;16.13;;
735;SDS011;352;48.626;9.238;2022-12-16T10:00:11;18.58;;;14.40;;
735;SDS011;352;48.626;9.238;2022-12-16T10:03:02;16.25;;;12.00;;
735;SDS011;352;48.626;9.238;2022-12-16T10:06:06;19.25;;;12.75;;
735;SDS011;352;48.626;9.238;2022-12-16T10:09:01;14.43;;;11.52;;
735;SDS011;352;48.626;9.238;2022-12-16T10:11:52;14.52;;;10.77;;
735;SDS011;352;48.626;9.238;2022-12-16T10:14:43;10.82;;;9.70;;
735;SDS011;352;48.626;9.238;2022-12-16T10:17:35;16.33;;;10.93;;
735;SDS011;352;48.626;9.238;2022-12-16T10:20:28;11.93;;;9.60;;
735;SDS011;352;48.626;9.238;2022-12-16T10:23:19;13.20;;;9.88;;
735;SDS011;352;48.626;9.238;2022-12-16T10:26:12;12.23;;;9.13;;
735;SDS011;352;48.626;9.238;2022-12-16T10:28:59;20.45;;;10.93;;
735;SDS011;352;48.626;9.238;2022-12-16T10:31:50;12.02;;;9.20;;
735;SDS011;352;48.626;9.238;2022-12-16T10:34:34;14.40;;;9.10;;
735;SDS011;352;48.626;9.238;2022-12-16T10:37:20;9.68;;;8.68;;
735;SDS011;352;48.626;9.238;2022-12-16T10:40:16;17.52;;;9.70;;
735;SDS011;352;48.626;9.238;2022-12-16T10:43:09;16.88;;;9.68;;
735;SDS011;352;48.626;9.238;2022-12-16T10:45:57;12.43;;;10.75;;
735;SDS011;352;48.626;9.238;2022-12-16T10:48:42;14.18;;;9.40;;
735;SDS011;352;48.626;9.238;2022-12-16T10:51:27;12.73;;;8.60;;
735;SDS011;352;48.626;9.238;2022-12-16T10:54:21;11.65;;;9.18;;
735;SDS011;352;48.626;9.238;2022-12-16T10:57:14;11.63;;;10.00;;
735;SDS011;352;48.626;9.238;2022-12-16T11:00:10;11.35;;;9.20;;
735;SDS011;352;48.626;9.238;2022-12-16T11:03:01;9.77;;;8.52;;
735;SDS011;352;48.626;9.238;2022-12-16T11:06:00;18.38;;;9.35;;
735;SDS011;352;48.626;9.238;2022-12-16T11:08:45;15.48;;;9.57;;
735;SDS011;352;48.626;9.238;2022-12-16T11:11:30;10.10;;;8.65;;
735;SDS011;352;48.626;9.238;2022-12-16T11:14:20;10.10;;;8.65;;
735;SDS011;352;48.626;9.238;2022-12-16T11:17:11;15.05;;;9.00;;
735;SDS011;352;48.626;9.238;2022-12-16T11:20:09;9.73;;;8.68;;
735;SDS011;352;48.626;9.238;2022-12-16T11:23:07;11.60;;;9.35;;
735;SDS011;352;48.626;9.238;2022-12-16T11:26:02;11.82;;;8.43;;
735;SDS011;352;48.626;9.238;2022-12-16T11:28:57;13.55;;;10.50;;
735;SDS011;352;48.626;9.238;2022-12-16T11:31:50;9.00;;;8.20;;
735;SDS011;352;48.626;9.238;2022-12-16T11:34:42;12.52;;;9.60;;
735;SDS011;352;48.626;9.238;2022-12-16T11:37:29;14.52;;;10.50;;
735;SDS011;352;48.626;9.238;2022-12-16T11:40:15;9.90;;;8.90;;
735;SDS011;352;48.626;9.238;2022-12-16T11:43:01;15.20;;;9.35;;
735;SDS011;352;48.626;9.238;2022-12-16T11:45:48;11.73;;;9.68;;
735;SDS011;352;48.626;9.238;2022-12-16T11:48:35;12.00;;;9.75;;
735;SDS011;352;48.626;9.238;2022-12-16T11:51:27;11.38;;;9.18;;
735;SDS011;352;48.626;9.238;2022-12-16T11:54:16;14.75;;;10.65;;
735;SDS011;352;48.626;9.238;2022-12-16T11:57:04;14.20;;;9.52;;
735;SDS011;352;48.626;9.238;2022-12-16T11:59:57;11.70;;;8.73;;
735;SDS011;352;48.626;9.238;2022-12-16T12:02:46;12.88;;;9.45;;
735;SDS011;352;48.626;9.238;2022-12-16T12:05:35;11.35;;;8.95;;
735;SDS011;352;48.626;9.238;2022-12-16T12:08:24;10.90;;;8.30;;
735;SDS011;352;48.626;9.238;2022-12-16T12:11:15;9.23;;;7.95;;
735;SDS011;352;48.626;9.238;2022-12-16T12:14:09;11.82;;;8.32;;
735;SDS011;352;48.626;9.238;2022-12-16T12:17:03;10.75;;;7.20;;
735;SDS011;352;48.626;9.238;2022-12-16T12:20:01;13.82;;;8.85;;
735;SDS011;352;48.626;9.238;2022-12-16T12:22:54;11.32;;;8.18;;
735;SDS011;352;48.626;9.238;2022-12-16T12:25:45;9.00;;;8.07;;
735;SDS011;352;48.626;9.238;2022-12-16T12:28:36;13.30;;;7.80;;
735;SDS011;352;48.626;9.238;2022-12-16T12:31:28;9.55;;;8.15;;
735;SDS011;352;48.626;9.238;2022-12-16T12:34:21;12.57;;;8.82;;
735;SDS011;352;48.626;9.238;2022-12-16T12:37:14;11.43;;;9.23;;
735;SDS011;352;48.626;9.238;2022-12-16T12:40:06;9.77;;;8.80;;
735;SDS011;352;48.626;9.238;2022-12-16T12:43:03;8.73;;;7.55;;
735;SDS011;352;48.626;9.238;2022-12-16T12:45:56;12.02;;;8.60;;
735;SDS011;352;48.626;9.238;2022-12-16T12:48:48;12.45;;;9.13;;
735;SDS011;352;48.626;9.238;2022-12-16T12:51:41;9.73;;;8.65;;
735;SDS011;352;48.626;9.238;2022-12-16T12:54:33;14.32;;;9.18;;
735;SDS011;352;48.626;9.238;2022-12-16T12:57:26;12.57;;;7.43;;
735;SDS011;352;48.626;9.238;2022-12-16T13:00:15;9.45;;;8.20;;
735;SDS011;352;48.626;9.238;2022-12-16T13:03:03;10.00;;;7.72;;
735;SDS011;352;48.626;9.238;2022-12-16T13:05:50;7.85;;;7.07;;
735;SDS011;352;48.626;9.238;2022-12-16T13:08:43;11.13;;;8.27;;
735;SDS011;352;48.626;9.238;2022-12-16T13:11:37;11.18;;;8.10;;
735;SDS011;352;48.626;9.238;2022-12-16T13:20:56;9.77;;;8.75;;
735;SDS011;352;48.626;9.238;2022-12-16T13:23:41;9.40;;;8.48;;
735;SDS011;352;48.626;9.238;2022-12-16T13:26:28;12.63;;;8.25;;
735;SDS011;352;48.626;9.238;2022-12-16T13:29:16;11.18;;;8.10;;
735;SDS011;352;48.626;9.238;2022-12-16T13:32:03;9.13;;;8.23;;
735;SDS011;352;48.626;9.238;2022-12-16T13:35:02;10.32;;;8.27;;
735;SDS011;352;48.626;9.238;2022-12-16T13:37:53;8.40;;;7.60;;
735;SDS011;352;48.626;9.238;2022-12-16T13:40:49;8.88;;;8.00;;
735;SDS011;352;48.626;9.238;2022-12-16T13:43:41;11.07;;;8.02;;
735;SDS011;352;48.626;9.238;2022-12-16T13:46:37;10.60;;;8.65;;
735;SDS011;352;48.626;9.238;2022-12-16T13:49:40;11.45;;;8.38;;
735;SDS011;352;48.626;9.238;2022-12-16T13:52:34;10.38;;;8.70;;
735;SDS011;352;48.626;9.238;2022-12-16T13:55:26;10.07;;;8.73;;
735;SDS011;352;48.626;9.238;2022-12-16T13:58:16;10.82;;;8.85;;
735;SDS011;352;48.626;9.238;2022-12-16T14:01:09;11.23;;;10.05;;
735;SDS011;352;48.626;9.238;2022-12-16T14:03:57;11.60;;;9.98;;
735;SDS011;352;48.626;9.238;2022-12-16T14:06:43;10.60;;;8.90;;
735;SDS011;352;48.626;9.238;2022-12-16T14:09:31;11.38;;;9.45;;
735;SDS011;352;48.626;9.238;2022-12-16T14:12:37;13.13;;;9.00;;
735;SDS011;352;48.626;9.238;2022-12-16T14:15:28;13.15;;;10.27;;
735;SDS011;352;48.626;9.238;2022-12-16T14:18:22;13.25;;;9.57;;
735;SDS011;352;48.626;9.238;2022-12-16T14:21:15;12.32;;;9.73;;
735;SDS011;352;48.626;9.238;2022-12-16T14:24:06;10.75;;;9.35;;
735;SDS011;352;48.626;9.238;2022-12-16T14:27:03;14.38;;;9.30;;
735;SDS011;352;48.626;9.238;2022-12-16T14:29:55;12.52;;;8.45;;
735;SDS011;352;48.626;9.238;2022-12-16T14:32:39;12.60;;;9.07;;
735;SDS011;352;48.626;9.238;2022-12-16T14:35:24;13.43;;;10.50;;
735;SDS011;352;48.626;9.238;2022-12-16T14:38:21;11.73;;;10.45;;
735;SDS011;352;48.626;9.238;2022-12-16T14:41:09;12.32;;;9.68;;
735;SDS011;352;48.626;9.238;2022-12-16T14:43:55;13.55;;;10.27;;
735;SDS011;352;48.626;9.238;2022-12-16T14:46:41;12.25;;;9.65;;
735;SDS011;352;48.626;9.238;2022-12-16T14:49:26;12.82;;;9.63;;
735;SDS011;352;48.626;9.238;2022-12-16T14:52:14;12.30;;;9.77;;
735;SDS011;352;48.626;9.238;2022-12-16T14:55:04;13.70;;;10.63;;
735;SDS011;352;48.626;9.238;2022-12-16T14:58:03;14.43;;;10.45;;
735;SDS011;352;48.626;9.238;2022-12-16T15:00:48;12.75;;;9.60;;
735;SDS011;352;48.626;9.238;2022-12-16T15:03:36;12.38;;;9.50;;
735;SDS011;352;48.626;9.238;2022-12-16T15:06:23;13.45;;;9.85;;
735;SDS011;352;48.626;9.238;2022-12-16T15:09:11;10.38;;;9.15;;
735;SDS011;352;48.626;9.238;2022-12-16T15:12:01;16.98;;;11.48;;
735;SDS011;352;48.626;9.238;2022-12-16T15:14:45;11.98;;;8.38;;
735;SDS011;352;48.626;9.238;2022-12-16T15:17:30;11.38;;;9.90;;
735;SDS011;352;48.626;9.238;2022-12-16T15:20:21;13.93;;;9.65;;
735;SDS011;352;48.626;9.238;2022-12-16T15:23:09;10.70;;;8.75;;
735;SDS011;352;48.626;9.238;2022-12-16T15:25:58;12.43;;;10.35;;
735;SDS011;352;48.626;9.238;2022-12-16T15:28:42;17.75;;;10.35;;
735;SDS011;352;48.626;9.238;2022-12-16T15:31:29;13.20;;;10.10;;
735;SDS011;352;48.626;9.238;2022-12-16T15:34:16;16.80;;;13.38;;
735;SDS011;352;48.626;9.238;2022-12-16T15:37:17;14.73;;;11.40;;
735;SDS011;352;48.626;9.238;2022-12-16T15:40:04;20.98;;;13.90;;
735;SDS011;352;48.626;9.238;2022-12-16T15:43:01;13.25;;;10.88;;
735;SDS011;352;48.626;9.238;2022-12-16T15:45:46;13.05;;;10.10;;
735;SDS011;352;48.626;9.238;2022-12-16T15:48:37;13.25;;;9.50;;
735;SDS011;352;48.626;9.238;2022-12-16T15:51:23;13.52;;;9.55;;
735;SDS011;352;48.626;9.238;2022-12-16T15:54:28;15.05;;;11.30;;
735;SDS011;352;48.626;9.238;2022-12-16T15:57:25;12.90;;;11.02;;
735;SDS011;352;48.626;9.238;2022-12-16T16:00:17;14.45;;;10.88;;
735;SDS011;352;48.626;9.238;2022-12-16T16:03:04;15.50;;;11.02;;
735;SDS011;352;48.626;9.238;2022-12-16T16:05:59;15.18;;;11.27;;
735;SDS011;352;48.626;9.238;2022-12-16T16:08:43;17.05;;;11.55;;
735;SDS011;352;48.626;9.238;2022-12-16T16:11:34;12.63;;;9.90;;
735;SDS011;352;48.626;9.238;2022-12-16T16:14:19;12.35;;;9.95;;
735;SDS011;352;48.626;9.238;2022-12-16T16:17:06;12.15;;;9.20;;
735;SDS011;352;48.626;9.238;2022-12-16T16:20:03;15.05;;;10.00;;
735;SDS011;352;48.626;9.238;2022-12-16T16:22:48;15.02;;;10.98;;
735;SDS011;352;48.626;9.238;2022-12-16T16:25:32;14.20;;;10.48;;
735;SDS011;352;48.626;9.238;2022-12-16T16:28:18;15.32;;;10.30;;
735;SDS011;352;48.626;9.238;2022-12-16T16:31:02;14.30;;;10.13;;
735;SDS011;352;48.626;9.238;2022-12-16T16:34:01;14.88;;;10.32;;
735;SDS011;352;48.626;9.238;2022-12-16T16:36:46;12.60;;;10.40;;
735;SDS011;352;48.626;9.238;2022-12-16T16:39:34;15.15;;;11.00;;
735;SDS011;352;48.626;9.238;2022-12-16T16:42:18;13.15;;;9.60;;
735;SDS011;352;48.626;9.238;2022-12-16T16:45:05;14.02;;;10.15;;
735;SDS011;352;48.626;9.238;2022-12-16T16:47:49;14.15;;;10.23;;
735;SDS011;352;48.626;9.238;2022-12-16T16:50:35;13.63;;;9.30;;
735;SDS011;352;48.626;9.238;2022-12-16T16:53:18;13.32;;;9.50;;
735;SDS011;352;48.626;9.238;2022-12-16T16:56:03;13.48;;;9.48;;
735;SDS011;352;48.626;9.238;2022-12-16T16:58:47;11.00;;;9.73;;
735;SDS011;352;48.626;9.238;2022-12-16T17:01:44;13.45;;;9.95;;
735;SDS011;352;48.626;9.238;2022-12-16T17:04:28;13.50;;;10.20;;
735;SDS011;352;48.626;9.238;2022-12-16T17:07:13;15.75;;;10.73;;